Chazy Landing, New York
Current Conditions -  °F | °C
As of 3:53 AM on Wednesday 28 Jan 2015 (Local Time) from KPBG Reporting Station
Overcast Overcast  
Wind Chill: -8°   Ceiling: 4400
Heat Index:   Visibility: 7mi
Dew Point:   Wind: 16mph
Humidity: 77%   Direction: 350°N
Pressure: 30.01"   Gusts: NA
Location:  44.8906°N, 73.4663°W
Report Text: KPBG 280853Z AUTO 35014KT 7SM OVC044 M13/M16 A3001 RMK AO2 UPB43E49SNB0757E43 SLP167 P0000 60000 T11281161 53009
Loading
Personal Weather Stations






























Interactive Weather Map New forecast layout! Learn more

10-Day Weather Forecast

Advertisements
Track Severe Weather on mobile